createdAt,value
2019-03-19T00:00:39.986Z,0.22
2019-03-19T00:01:39.964Z,0.34
2019-03-19T00:02:39.964Z,0.37
2019-03-19T00:03:39.937Z,0.41
2019-03-19T00:04:39.961Z,0.46
2019-03-19T00:05:39.917Z,0.55
2019-03-19T00:06:39.908Z,0.55
2019-03-19T00:07:39.914Z,0.63
2019-03-19T00:08:39.894Z,0.63
2019-03-19T00:09:39.954Z,0.65
2019-03-19T00:10:39.863Z,0.74
2019-03-19T00:11:39.852Z,0.68
2019-03-19T00:12:39.857Z,0.70
2019-03-19T00:13:39.844Z,0.77
2019-03-19T00:14:39.838Z,0.86
2019-03-19T00:15:39.819Z,0.84
2019-03-19T00:16:39.799Z,0.78
2019-03-19T00:17:39.808Z,0.74
2019-03-19T00:18:39.793Z,0.74
2019-03-19T00:19:39.774Z,0.74
2019-03-19T00:20:39.775Z,0.84
2019-03-19T00:21:39.748Z,0.81
2019-03-19T00:22:39.747Z,0.81
2019-03-19T00:23:39.729Z,0.80
2019-03-19T00:24:39.720Z,0.94
2019-03-19T00:25:39.706Z,0.88
2019-03-19T00:26:39.714Z,0.91
2019-03-19T00:27:39.682Z,0.92
2019-03-19T00:28:39.692Z,0.91
2019-03-19T00:29:39.662Z,0.80
2019-03-19T05:00:37.604Z,-2.22
2019-03-19T05:01:37.584Z,-2.19
2019-03-19T05:02:37.580Z,-2.12
2019-03-19T05:03:37.560Z,-2.05
2019-03-19T05:04:37.544Z,-2.08
2019-03-19T05:05:37.553Z,-2.01
2019-03-19T05:06:37.557Z,-2.05
2019-03-19T05:07:37.529Z,-1.89
2019-03-19T05:08:37.508Z,-1.89
2019-03-19T05:09:37.526Z,-1.66
2019-03-19T05:10:37.485Z,-1.77
2019-03-19T05:11:37.489Z,-1.65
2019-03-19T05:12:37.470Z,-1.69
2019-03-19T05:13:37.456Z,-1.59
2019-03-19T05:14:37.445Z,-1.54
2019-03-19T05:15:37.455Z,-1.48
2019-03-19T05:16:37.419Z,-1.43
2019-03-19T05:17:37.412Z,-1.46
2019-03-19T05:18:37.414Z,-1.41
2019-03-19T05:19:37.394Z,-1.41
2019-03-19T05:20:37.399Z,-1.43
2019-03-19T05:21:37.374Z,-1.46
2019-03-19T05:22:44.909Z,-1.37
2019-03-19T05:23:37.351Z,-1.35
2019-03-19T05:24:37.409Z,-1.40
2019-03-19T05:25:37.354Z,-1.35
2019-03-19T05:26:37.335Z,-1.38
2019-03-19T05:27:37.905Z,-1.40
2019-03-19T05:28:37.296Z,-1.37
2019-03-19T05:29:37.289Z,-1.33
2019-03-19T05:30:37.304Z,-1.26
2019-03-19T05:31:37.281Z,-1.25
2019-03-19T05:32:37.273Z,-1.30
2019-03-19T05:33:37.249Z,-1.25
2019-03-19T05:34:37.240Z,-1.32
2019-03-19T05:35:37.249Z,-1.26
2019-03-19T05:36:37.225Z,-1.22
2019-03-19T05:37:37.211Z,-1.19
2019-03-19T05:38:37.204Z,-1.19
2019-03-19T05:39:37.183Z,-1.22
2019-03-19T05:40:37.175Z,-1.22
2019-03-19T05:41:37.197Z,-1.27
2019-03-19T05:42:37.157Z,-1.19
2019-03-19T05:43:37.183Z,-1.22
2019-03-19T05:44:37.149Z,-1.08
2019-03-19T05:45:37.233Z,-1.08
2019-03-19T05:46:37.125Z,-1.07
2019-03-19T05:47:40.202Z,-0.96
2019-03-19T05:48:37.090Z,-0.96
2019-03-19T05:49:37.116Z,-0.91
2019-03-19T05:50:37.074Z,-0.75
2019-03-19T05:51:37.080Z,-0.82
2019-03-19T05:52:37.061Z,-0.75
2019-03-19T05:53:37.037Z,-0.77
2019-03-19T05:54:37.041Z,-0.67
2019-03-19T05:55:37.030Z,-0.68
2019-03-19T05:56:37.012Z,-0.67
2019-03-19T05:57:48.410Z,-0.54
2019-03-19T05:58:38.006Z,-0.52
2019-03-19T05:59:36.981Z,-0.46
2019-03-19T06:00:36.970Z,-0.11
2019-03-19T06:01:36.962Z,0.05
2019-03-19T06:02:36.973Z,0.22
2019-03-19T06:03:36.948Z,0.49
2019-03-19T06:04:36.927Z,0.59
2019-03-19T06:05:36.919Z,0.78
2019-03-19T06:06:36.918Z,0.96
2019-03-19T06:07:36.913Z,0.96
2019-03-19T06:08:36.887Z,1.13
2019-03-19T06:09:36.923Z,1.26
2019-03-19T06:10:36.862Z,1.42
2019-03-19T06:11:36.871Z,1.76
2019-03-19T06:12:36.844Z,2.14
2019-03-19T06:13:36.852Z,2.50
2019-03-19T06:14:36.841Z,2.85
2019-03-19T06:15:36.815Z,3.22
2019-03-19T06:16:36.812Z,3.42
2019-03-19T06:17:36.795Z,3.56
2019-03-19T06:18:36.779Z,3.50
2019-03-19T06:19:36.793Z,3.41
2019-03-19T06:20:36.765Z,3.50
2019-03-19T06:21:36.747Z,3.50
2019-03-19T06:22:36.743Z,3.69
2019-03-19T06:23:36.763Z,3.92
2019-03-19T06:24:36.753Z,4.04
2019-03-19T06:25:36.702Z,4.06
2019-03-19T06:26:36.703Z,4.16
2019-03-19T06:27:36.685Z,4.30
2019-03-19T06:28:36.694Z,4.49
2019-03-19T06:29:36.692Z,4.71
2019-03-19T06:30:36.657Z,4.71
2019-03-19T06:31:36.644Z,4.68
2019-03-19T06:32:36.632Z,4.89
2019-03-19T06:33:36.640Z,5.32
2019-03-19T06:34:36.702Z,5.48
2019-03-19T06:35:36.994Z,5.54
2019-03-19T06:36:36.604Z,5.72
2019-03-19T06:37:36.582Z,6.09
2019-03-19T06:38:36.646Z,6.49
2019-03-19T06:39:36.570Z,6.69
2019-03-19T06:40:36.593Z,6.99
2019-03-19T06:41:36.543Z,7.14
2019-03-19T06:42:36.524Z,7.24
2019-03-19T06:43:36.527Z,7.33
2019-03-19T06:44:36.524Z,7.56
2019-03-19T06:45:36.502Z,7.80
2019-03-19T06:46:36.492Z,7.70
2019-03-19T06:47:36.478Z,7.73
2019-03-19T06:48:36.490Z,7.67
2019-03-19T06:49:36.458Z,7.91
2019-03-19T06:50:44.711Z,8.60
2019-03-19T06:51:37.432Z,9.32
2019-03-19T06:52:36.425Z,9.64
2019-03-19T06:53:36.405Z,9.98
2019-03-19T06:54:36.414Z,10.19
2019-03-19T06:55:36.389Z,10.04
2019-03-19T06:56:36.460Z,9.95
2019-03-19T06:57:39.459Z,9.87
2019-03-19T06:58:36.363Z,9.87
2019-03-19T06:59:36.347Z,9.94
2019-03-19T07:00:36.336Z,9.76
2019-03-19T07:01:36.350Z,9.79
2019-03-19T07:02:36.323Z,9.72
2019-03-19T07:03:36.302Z,9.55
2019-03-19T07:04:36.298Z,9.26
2019-03-19T07:05:36.289Z,8.82
2019-03-19T07:06:36.310Z,8.64
2019-03-19T07:07:36.261Z,8.38
2019-03-19T07:08:36.258Z,8.05
2019-03-19T07:09:36.262Z,7.80
2019-03-19T07:10:36.241Z,7.80
2019-03-19T07:11:36.222Z,7.72
2019-03-19T07:12:36.223Z,7.69
2019-03-19T07:13:36.205Z,7.70
2019-03-19T07:14:36.204Z,7.60
2019-03-19T07:15:36.184Z,7.56
2019-03-19T07:16:36.190Z,7.53
2019-03-19T07:17:36.191Z,7.35
2019-03-19T07:18:36.143Z,7.20
2019-03-19T07:19:36.138Z,7.15
2019-03-19T07:20:36.138Z,7.15
2019-03-19T07:21:36.131Z,7.17
2019-03-19T07:22:36.108Z,7.13
2019-03-19T07:23:36.130Z,7.14
2019-03-19T07:24:36.084Z,7.17
2019-03-19T07:25:36.102Z,7.10
2019-03-19T07:26:36.067Z,7.06
2019-03-19T07:27:36.065Z,7.06
2019-03-19T07:28:36.047Z,6.96
2019-03-19T07:29:36.049Z,6.84
2019-03-19T07:30:36.019Z,6.89
2019-03-19T07:31:36.009Z,6.92
2019-03-19T07:32:36.013Z,6.89
2019-03-19T07:33:35.997Z,6.92
2019-03-19T07:34:35.983Z,6.97
2019-03-19T07:35:35.968Z,6.96
2019-03-19T07:36:35.969Z,6.99
2019-03-19T07:37:36.005Z,7.05
2019-03-19T07:38:35.941Z,7.02
2019-03-19T07:39:35.938Z,6.97
2019-03-19T07:40:35.915Z,7.06
2019-03-19T07:41:35.907Z,7.05
2019-03-19T07:42:35.938Z,7.17
2019-03-19T07:43:35.892Z,7.21
2019-03-19T07:44:35.908Z,7.21
2019-03-19T07:45:35.862Z,7.45
2019-03-19T07:46:35.855Z,7.73
2019-03-19T07:47:35.883Z,7.85
2019-03-19T07:48:35.856Z,7.97
2019-03-19T07:49:35.823Z,8.20
2019-03-19T07:50:35.834Z,8.34
2019-03-19T07:51:35.798Z,8.45
2019-03-19T07:52:35.811Z,8.51
2019-03-19T07:53:35.799Z,8.69
2019-03-19T07:54:35.776Z,8.82
2019-03-19T07:55:35.762Z,8.81
2019-03-19T07:56:35.763Z,8.94
2019-03-19T07:57:35.759Z,9.11
2019-03-19T07:58:44.764Z,9.23
2019-03-19T07:59:36.714Z,9.25
2019-03-19T08:00:35.705Z,9.43
2019-03-19T08:01:35.699Z,9.34
2019-03-19T08:02:35.694Z,9.47
2019-03-19T08:03:35.716Z,9.50
2019-03-19T08:04:35.664Z,9.55
2019-03-19T08:05:35.648Z,9.59
2019-03-19T08:06:35.657Z,9.66
2019-03-19T08:07:35.668Z,9.51
2019-03-19T08:08:35.652Z,9.62
2019-03-19T08:09:35.667Z,9.62
2019-03-19T08:10:35.599Z,9.64
2019-03-19T08:11:35.627Z,9.66
2019-03-19T08:12:43.108Z,9.68
2019-03-19T08:13:43.111Z,9.73
2019-03-19T08:14:43.105Z,9.64
2019-03-19T08:15:43.086Z,9.74
2019-03-19T08:16:43.078Z,9.74
2019-03-19T08:17:43.308Z,9.72
2019-03-19T08:18:43.042Z,9.66
2019-03-19T08:19:43.045Z,9.68
2019-03-19T08:20:35.515Z,9.61
2019-03-19T08:21:43.027Z,9.64
2019-03-19T08:22:43.010Z,9.64
2019-03-19T08:23:35.460Z,9.77
2019-03-19T08:24:35.456Z,9.82
2019-03-19T08:25:35.454Z,9.86
2019-03-19T08:26:35.437Z,10.02
2019-03-19T08:27:35.418Z,10.01
2019-03-19T08:28:35.407Z,10.17
2019-03-19T08:29:35.396Z,10.28
2019-03-19T08:30:35.425Z,10.37
2019-03-19T08:31:35.381Z,10.48
2019-03-19T08:32:35.367Z,10.57
2019-03-19T08:33:35.364Z,10.71
2019-03-19T08:34:36.327Z,10.75
2019-03-19T08:35:35.332Z,10.93
2019-03-19T08:36:35.334Z,10.97
2019-03-19T08:37:35.318Z,11.17
2019-03-19T08:38:35.315Z,11.29
2019-03-19T08:39:36.633Z,11.44
2019-03-19T08:40:35.281Z,11.51
2019-03-19T08:41:35.273Z,11.69
2019-03-19T08:42:35.259Z,11.72
2019-03-19T08:43:35.244Z,11.78
2019-03-19T08:44:35.236Z,11.83
2019-03-19T08:45:35.243Z,12.03
2019-03-19T08:46:35.209Z,12.00
2019-03-19T08:47:35.257Z,12.21
2019-03-19T08:48:37.370Z,12.39
2019-03-19T08:49:35.203Z,12.45
2019-03-19T08:50:35.192Z,12.47
2019-03-19T08:51:35.159Z,12.61
2019-03-19T08:52:35.167Z,12.78
2019-03-19T08:53:35.151Z,12.79
2019-03-19T08:54:35.123Z,12.80
2019-03-19T08:55:35.130Z,12.91
2019-03-19T08:56:35.110Z,12.91
2019-03-19T08:57:35.113Z,13.01
2019-03-19T08:58:35.091Z,13.01
2019-03-19T08:59:35.087Z,13.09
2019-03-19T09:00:35.152Z,13.12
2019-03-19T09:01:35.052Z,13.18
2019-03-19T09:02:35.045Z,13.13
2019-03-19T09:03:35.042Z,13.18
2019-03-19T09:04:35.862Z,13.30
2019-03-19T09:05:35.013Z,13.33
2019-03-19T09:06:35.014Z,13.37
2019-03-19T09:07:34.983Z,13.47
2019-03-19T09:08:34.977Z,13.50
2019-03-19T09:09:34.976Z,13.52
2019-03-19T09:10:34.963Z,13.56
2019-03-19T09:11:36.561Z,13.62
2019-03-19T09:12:34.943Z,13.56
2019-03-19T09:13:34.930Z,13.56
2019-03-19T09:14:34.913Z,13.50
2019-03-19T09:15:34.920Z,13.60
2019-03-19T09:16:34.938Z,13.60
2019-03-19T09:17:34.885Z,13.54
2019-03-19T09:18:34.866Z,13.65
2019-03-19T09:19:34.864Z,13.62
2019-03-19T09:20:34.845Z,13.68
2019-03-19T09:21:34.835Z,13.65
2019-03-19T09:22:34.852Z,13.79
2019-03-19T09:23:34.826Z,13.72
2019-03-19T09:24:34.829Z,13.81
2019-03-19T09:25:34.797Z,13.81
2019-03-19T09:26:35.324Z,13.83
2019-03-19T09:27:34.791Z,13.77
2019-03-19T09:28:34.785Z,13.78
2019-03-19T09:29:34.745Z,13.87
2019-03-19T09:30:34.750Z,13.86
2019-03-19T09:31:34.733Z,13.95
2019-03-19T09:32:34.747Z,13.89
2019-03-19T09:33:34.703Z,13.95
2019-03-19T09:34:34.715Z,14.03
2019-03-19T09:35:34.700Z,13.95
2019-03-19T09:36:34.680Z,14.07
2019-03-19T09:37:34.668Z,14.10
2019-03-19T09:38:34.668Z,14.07
2019-03-19T09:39:34.664Z,14.14
2019-03-19T09:40:34.630Z,14.18
2019-03-19T09:41:34.625Z,14.18
2019-03-19T09:42:34.613Z,14.26
2019-03-19T09:43:34.613Z,14.26
2019-03-19T09:44:34.589Z,14.35
2019-03-19T09:45:34.580Z,14.41
2019-03-19T09:46:34.574Z,14.53
2019-03-19T09:47:34.552Z,14.62
2019-03-19T09:48:34.563Z,14.68
2019-03-19T09:49:34.536Z,14.78
2019-03-19T09:50:34.534Z,14.81
2019-03-19T09:51:34.510Z,14.84
2019-03-19T09:52:34.498Z,14.96
2019-03-19T09:53:34.505Z,14.89
2019-03-19T09:54:34.529Z,14.86
2019-03-19T09:55:34.496Z,14.88
2019-03-19T09:56:34.461Z,14.85
2019-03-19T09:57:34.456Z,14.86
2019-03-19T09:58:34.438Z,14.91
2019-03-19T09:59:34.440Z,15.02
2019-03-19T10:00:34.429Z,15.03
2019-03-19T10:01:34.404Z,15.21
2019-03-19T10:02:34.398Z,15.25
2019-03-19T10:03:34.381Z,15.25
2019-03-19T10:04:34.388Z,15.33
2019-03-19T10:05:34.354Z,15.40
2019-03-19T10:06:34.353Z,15.65
2019-03-19T10:07:34.340Z,15.59
2019-03-19T10:08:34.368Z,15.76
2019-03-19T10:09:34.319Z,15.82
2019-03-19T10:10:34.386Z,15.92
2019-03-19T10:11:34.297Z,15.98
2019-03-19T10:12:34.307Z,16.08
2019-03-19T10:13:34.328Z,15.72
2019-03-19T10:14:34.264Z,15.65
2019-03-19T10:15:34.277Z,15.75
2019-03-19T10:16:34.249Z,15.64
2019-03-19T10:17:34.243Z,15.42
2019-03-19T10:18:34.212Z,15.17
2019-03-19T10:19:34.214Z,14.99
2019-03-19T10:20:34.197Z,14.81
2019-03-19T10:21:34.317Z,14.73
2019-03-19T10:22:34.171Z,14.78
2019-03-19T10:23:34.201Z,14.78
2019-03-19T10:24:34.149Z,15.02
2019-03-19T10:25:34.146Z,15.35
2019-03-19T10:26:34.155Z,15.64
2019-03-19T10:27:34.120Z,15.79
2019-03-19T10:28:34.111Z,15.94
2019-03-19T10:29:38.331Z,16.23
2019-03-19T10:30:34.096Z,16.32
2019-03-19T10:31:34.093Z,16.50
2019-03-19T10:32:34.068Z,16.53
2019-03-19T10:33:34.052Z,16.31
2019-03-19T10:34:34.046Z,16.04
2019-03-19T10:35:34.041Z,15.86
2019-03-19T10:36:34.018Z,16.17
2019-03-19T10:37:34.021Z,16.21
2019-03-19T10:38:34.019Z,16.32
2019-03-19T10:39:33.993Z,16.42
2019-03-19T10:40:33.993Z,16.43
2019-03-19T10:41:33.990Z,16.50
2019-03-19T10:42:33.998Z,16.51
2019-03-19T10:43:33.963Z,16.60
2019-03-19T10:44:33.934Z,16.60
2019-03-19T10:45:33.927Z,16.69
2019-03-19T10:46:33.934Z,16.76
2019-03-19T10:47:33.919Z,16.76
2019-03-19T10:48:33.898Z,16.81
2019-03-19T10:49:33.883Z,16.58
2019-03-19T10:50:33.866Z,16.28
2019-03-19T10:51:35.189Z,16.41
2019-03-19T10:52:33.874Z,16.39
2019-03-19T10:53:33.847Z,16.43
2019-03-19T10:54:33.831Z,16.33
2019-03-19T10:55:33.820Z,15.76
2019-03-19T10:56:33.818Z,15.46
2019-03-19T10:57:33.803Z,15.51
2019-03-19T10:58:33.805Z,15.10
2019-03-19T10:59:33.785Z,15.14
2019-03-19T11:00:33.773Z,15.37
2019-03-19T11:01:33.755Z,15.49
2019-03-19T11:02:33.753Z,15.73
2019-03-19T11:03:33.749Z,15.79
2019-03-19T11:04:33.717Z,16.08
2019-03-19T11:05:33.706Z,16.21
2019-03-19T11:06:33.729Z,16.33
2019-03-19T11:07:33.688Z,16.46
2019-03-19T11:08:33.686Z,16.36
2019-03-19T11:09:33.667Z,16.36
2019-03-19T11:10:33.655Z,16.09
2019-03-19T11:11:33.646Z,15.58
2019-03-19T11:12:33.662Z,15.29
2019-03-19T11:13:33.636Z,15.15
2019-03-19T11:14:33.670Z,14.94
2019-03-19T11:15:33.597Z,14.99
2019-03-19T11:16:33.584Z,15.02
2019-03-19T11:17:33.593Z,15.11
2019-03-19T11:18:33.569Z,15.27
2019-03-19T11:19:33.574Z,15.43
2019-03-19T11:20:33.569Z,15.39
2019-03-19T11:21:33.536Z,15.54
2019-03-19T11:22:33.672Z,15.44
2019-03-19T11:23:33.514Z,15.42
2019-03-19T11:24:33.526Z,15.57
2019-03-19T11:25:33.501Z,15.58
2019-03-19T11:26:33.478Z,15.61
2019-03-19T11:27:33.466Z,15.72
2019-03-19T11:28:33.463Z,15.70
2019-03-19T11:29:33.464Z,15.79
2019-03-19T11:30:33.459Z,15.91
2019-03-19T11:31:33.432Z,16.02
2019-03-19T11:32:33.419Z,16.01
2019-03-19T11:33:33.405Z,16.09
2019-03-19T11:34:33.397Z,16.09
2019-03-19T11:35:33.395Z,16.16
2019-03-19T11:36:33.374Z,16.24
2019-03-19T11:37:33.360Z,16.26
2019-03-19T11:38:33.350Z,16.38
2019-03-19T11:39:33.351Z,16.33
2019-03-19T11:40:33.341Z,16.50
2019-03-19T11:41:33.345Z,16.65
2019-03-19T11:42:33.313Z,16.66
2019-03-19T11:43:33.299Z,16.74
2019-03-19T11:44:33.299Z,16.79
2019-03-19T11:45:33.276Z,16.83
2019-03-19T11:46:33.282Z,16.84
2019-03-19T11:47:33.252Z,16.93
2019-03-19T11:48:33.237Z,16.94
2019-03-19T11:49:33.238Z,16.96
2019-03-19T11:50:33.701Z,16.91
2019-03-19T11:51:33.231Z,16.93
2019-03-19T11:52:33.202Z,16.87
2019-03-19T11:53:33.190Z,16.93
2019-03-19T11:54:33.177Z,16.96
2019-03-19T11:55:33.177Z,16.83
2019-03-19T11:56:33.176Z,16.75
2019-03-19T11:57:33.172Z,16.78
2019-03-19T11:58:33.134Z,16.91
2019-03-19T11:59:33.126Z,16.99
2019-03-19T12:00:33.114Z,17.02
2019-03-19T12:01:33.123Z,17.06
2019-03-19T12:02:33.096Z,17.23
2019-03-19T12:03:33.087Z,17.24
2019-03-19T12:04:33.075Z,17.23
2019-03-19T12:05:33.068Z,17.23
2019-03-19T12:06:33.063Z,17.27
2019-03-19T12:07:33.061Z,17.22
2019-03-19T12:08:33.032Z,17.15
2019-03-19T12:09:33.021Z,17.29
2019-03-19T12:10:33.011Z,17.20
2019-03-19T12:11:33.008Z,17.12
2019-03-19T12:12:33.007Z,17.19
2019-03-19T12:13:32.973Z,17.14
2019-03-19T12:14:32.970Z,17.15
2019-03-19T12:15:32.959Z,17.15
2019-03-19T12:16:32.973Z,17.11
2019-03-19T12:17:32.939Z,17.05
2019-03-19T12:18:32.982Z,16.58
2019-03-19T12:19:32.935Z,16.39
2019-03-19T12:20:32.899Z,16.36
2019-03-19T12:21:32.890Z,16.50
2019-03-19T12:22:32.888Z,16.49
2019-03-19T12:23:32.895Z,16.50
2019-03-19T12:24:32.932Z,16.58
2019-03-19T12:25:32.859Z,16.64
2019-03-19T12:26:32.835Z,16.64
2019-03-19T12:27:32.822Z,16.65
2019-03-19T12:28:39.693Z,16.58
2019-03-19T12:29:33.817Z,16.56
2019-03-19T12:30:32.801Z,16.58
2019-03-19T12:31:32.813Z,16.60
2019-03-19T12:32:32.768Z,16.61
2019-03-19T12:33:40.439Z,16.74
2019-03-19T12:34:33.754Z,16.83
2019-03-19T12:35:32.750Z,16.83
2019-03-19T12:36:32.749Z,16.90
2019-03-19T12:37:32.735Z,17.01
2019-03-19T12:38:32.713Z,17.16
2019-03-19T12:39:32.732Z,17.22
2019-03-19T12:40:37.260Z,17.26
2019-03-19T12:41:32.692Z,17.34
2019-03-19T12:42:32.667Z,17.38
2019-03-19T12:43:32.658Z,17.54
2019-03-19T12:44:32.673Z,17.49
2019-03-19T12:45:32.654Z,17.70
2019-03-19T12:46:32.627Z,17.74
2019-03-19T12:47:32.618Z,17.90
2019-03-19T12:48:32.605Z,18.05
2019-03-19T12:49:32.603Z,18.05
2019-03-19T12:50:32.625Z,18.10
2019-03-19T12:51:32.566Z,18.23
2019-03-19T12:52:32.558Z,18.37
2019-03-19T12:53:32.556Z,18.47
2019-03-19T12:54:32.546Z,18.49
2019-03-19T12:55:32.547Z,18.50
2019-03-19T12:56:32.583Z,18.44
2019-03-19T12:57:32.505Z,18.33
2019-03-19T12:58:32.490Z,18.28
2019-03-19T12:59:32.482Z,18.19
2019-03-19T13:00:34.553Z,18.18
2019-03-19T13:01:32.592Z,18.04
2019-03-19T13:02:32.471Z,18.11
2019-03-19T13:03:32.440Z,18.00
2019-03-19T13:04:32.534Z,17.83
2019-03-19T13:05:32.420Z,17.79
2019-03-19T13:06:32.440Z,17.71
2019-03-19T13:07:32.419Z,17.65
2019-03-19T13:08:32.383Z,17.63
2019-03-19T13:09:32.369Z,17.63
2019-03-19T13:10:32.365Z,17.57
2019-03-19T13:11:32.365Z,17.52
2019-03-19T13:12:32.335Z,17.36
2019-03-19T13:13:32.339Z,17.39
2019-03-19T13:14:32.313Z,17.27
2019-03-19T13:15:32.523Z,17.24
2019-03-19T13:16:32.330Z,17.22
2019-03-19T13:17:32.280Z,17.14
2019-03-19T13:18:32.278Z,17.11
2019-03-19T13:19:32.264Z,17.09
2019-03-19T13:20:32.254Z,17.06
2019-03-19T13:21:32.251Z,17.06
2019-03-19T13:22:32.236Z,17.05
2019-03-19T13:23:32.231Z,17.11
2019-03-19T13:24:32.225Z,17.24
2019-03-19T13:25:32.192Z,17.20
2019-03-19T13:26:32.204Z,17.29
2019-03-19T13:27:32.177Z,17.29
2019-03-19T13:28:32.982Z,17.27
2019-03-19T13:29:32.166Z,17.16
2019-03-19T13:30:32.139Z,17.15
2019-03-19T13:31:32.221Z,17.20
2019-03-19T13:32:32.148Z,17.24
2019-03-19T13:33:32.114Z,17.39
2019-03-19T13:34:32.095Z,17.39
2019-03-19T13:35:32.085Z,17.49
2019-03-19T13:36:32.072Z,17.59
2019-03-19T13:37:32.079Z,17.64
2019-03-19T13:38:32.060Z,17.74
2019-03-19T13:39:32.042Z,17.78
2019-03-19T13:40:32.034Z,17.80
2019-03-19T13:41:32.094Z,17.97
2019-03-19T13:42:32.021Z,17.86
2019-03-19T13:43:32.167Z,17.52
2019-03-19T13:44:32.586Z,17.48
2019-03-19T13:45:32.062Z,17.49
2019-03-19T13:46:32.128Z,17.71
2019-03-19T13:47:32.029Z,17.63
2019-03-19T13:48:32.838Z,17.71
2019-03-19T13:49:31.926Z,17.67
2019-03-19T13:50:31.917Z,17.31
2019-03-19T13:51:31.913Z,17.16
2019-03-19T13:52:31.895Z,16.90
2019-03-19T13:53:31.896Z,16.87
2019-03-19T13:54:31.875Z,16.87
2019-03-19T13:55:31.862Z,16.78
2019-03-19T13:56:31.858Z,16.79
2019-03-19T13:57:39.230Z,16.41
2019-03-19T13:58:31.924Z,16.26
2019-03-19T13:59:38.939Z,16.08
2019-03-19T14:00:39.340Z,16.21
2019-03-19T14:01:39.381Z,16.39
2019-03-19T14:02:39.678Z,16.58
2019-03-19T14:03:39.480Z,16.56
2019-03-19T14:04:38.840Z,16.53
2019-03-19T14:05:39.051Z,16.41
2019-03-19T14:06:31.740Z,16.60
2019-03-19T14:07:31.731Z,16.74
2019-03-19T14:08:32.046Z,16.68
2019-03-19T14:09:31.709Z,16.46
2019-03-19T14:10:31.715Z,16.17
2019-03-19T14:11:31.684Z,16.32
2019-03-19T14:12:31.679Z,16.21
2019-03-19T14:13:31.664Z,16.23
2019-03-19T14:14:31.683Z,16.21
2019-03-19T14:15:31.667Z,16.32
2019-03-19T14:16:31.636Z,16.57
2019-03-19T14:17:31.888Z,16.61
2019-03-19T14:18:31.615Z,16.78
2019-03-19T14:19:31.606Z,17.06
2019-03-19T14:20:31.938Z,17.33
2019-03-19T14:21:31.668Z,17.45
2019-03-19T14:22:31.732Z,17.46
2019-03-19T14:23:31.898Z,17.31
2019-03-19T14:24:31.548Z,17.05
2019-03-19T14:25:31.534Z,16.99
2019-03-19T14:26:31.543Z,16.74
2019-03-19T14:27:31.522Z,16.71
2019-03-19T14:28:32.196Z,16.49
2019-03-19T14:29:31.493Z,16.29
2019-03-19T14:30:31.480Z,16.39
2019-03-19T14:31:31.494Z,16.24
2019-03-19T14:32:31.530Z,15.98
2019-03-19T14:33:31.454Z,15.92
2019-03-19T14:34:31.451Z,16.00
2019-03-19T14:35:37.243Z,15.95
2019-03-19T14:36:32.435Z,15.86
2019-03-19T14:37:31.436Z,16.10
2019-03-19T14:38:31.399Z,16.13
2019-03-19T14:39:31.409Z,16.00
2019-03-19T14:40:31.402Z,15.76
2019-03-19T14:41:31.381Z,15.91
2019-03-19T14:42:31.363Z,16.10
2019-03-19T14:43:31.342Z,16.26
2019-03-19T14:44:31.328Z,16.41
2019-03-19T14:45:31.321Z,16.54
2019-03-19T14:46:31.756Z,16.41
2019-03-19T14:47:31.320Z,16.54
2019-03-19T14:48:31.332Z,16.68
2019-03-19T14:49:31.282Z,16.61
2019-03-19T14:50:31.272Z,16.72
2019-03-19T14:51:31.295Z,16.66
2019-03-19T14:52:31.250Z,16.69
2019-03-19T14:53:31.251Z,16.54
2019-03-19T14:54:31.225Z,16.60
2019-03-19T14:55:31.211Z,16.54
2019-03-19T14:56:31.219Z,16.64
2019-03-19T14:57:31.190Z,16.57
2019-03-19T14:58:31.194Z,16.51
2019-03-19T14:59:31.188Z,16.36
2019-03-19T15:00:31.157Z,16.31
2019-03-19T15:01:31.144Z,16.21
2019-03-19T15:02:31.156Z,16.09
2019-03-19T15:03:31.136Z,16.08
2019-03-19T15:04:31.116Z,15.98
2019-03-19T15:05:31.158Z,15.95
2019-03-19T15:06:31.097Z,15.79
2019-03-19T15:07:31.099Z,15.54
2019-03-19T15:08:31.073Z,15.33
2019-03-19T15:09:31.065Z,15.00
2019-03-19T15:10:31.067Z,14.69
2019-03-19T15:11:31.043Z,14.50
2019-03-19T15:12:31.075Z,14.26
2019-03-19T15:13:31.023Z,14.05
2019-03-19T15:14:31.017Z,13.95
2019-03-19T15:15:31.011Z,13.78
2019-03-19T15:16:31.009Z,13.71
2019-03-19T15:17:30.980Z,13.59
2019-03-19T15:18:30.988Z,13.49
2019-03-19T15:19:30.958Z,13.27
2019-03-19T15:20:30.949Z,13.16
2019-03-19T15:21:30.934Z,13.05
2019-03-19T15:22:32.684Z,13.01
2019-03-19T15:23:30.920Z,12.93
2019-03-19T15:24:30.918Z,12.78
2019-03-19T15:25:30.887Z,12.72
2019-03-19T15:26:30.907Z,12.72
2019-03-19T15:27:30.873Z,12.62
2019-03-19T15:28:30.876Z,12.46
2019-03-19T15:29:30.865Z,12.58
2019-03-19T15:30:30.832Z,12.55
2019-03-19T15:31:30.839Z,12.78
2019-03-19T15:32:30.815Z,12.73
2019-03-19T15:33:30.808Z,12.75
2019-03-19T15:34:30.816Z,12.79
2019-03-19T15:35:30.953Z,12.86
2019-03-19T15:36:30.918Z,12.90
2019-03-19T15:37:30.960Z,12.91
2019-03-19T15:38:30.744Z,12.83
2019-03-19T15:39:30.751Z,12.76
2019-03-19T15:40:30.729Z,12.55
2019-03-19T15:41:30.722Z,12.43
2019-03-19T15:42:30.722Z,12.35
2019-03-19T15:43:30.693Z,12.29
2019-03-19T15:44:30.768Z,12.13
2019-03-19T15:45:30.670Z,12.04
2019-03-19T15:46:30.667Z,11.88
2019-03-19T15:47:30.788Z,11.81
2019-03-19T15:48:30.859Z,11.86
2019-03-19T15:49:38.171Z,11.77
2019-03-19T15:50:31.614Z,11.73
2019-03-19T15:51:30.606Z,11.70
2019-03-19T15:52:30.606Z,11.62
2019-03-19T15:53:30.610Z,11.62
2019-03-19T15:54:30.576Z,11.55
2019-03-19T15:55:30.591Z,11.57
2019-03-19T15:56:30.551Z,11.41
2019-03-19T15:57:30.537Z,11.52
2019-03-19T15:58:30.687Z,11.54
2019-03-19T15:59:30.722Z,11.65
2019-03-19T16:00:30.610Z,11.54
2019-03-19T16:01:40.043Z,11.60
2019-03-19T16:02:31.538Z,11.60
2019-03-19T16:03:30.655Z,11.60
2019-03-19T16:04:30.478Z,11.52
2019-03-19T16:05:30.475Z,11.41
2019-03-19T16:06:30.449Z,11.45
2019-03-19T16:07:30.435Z,11.35
2019-03-19T16:08:30.426Z,11.36
2019-03-19T16:09:30.413Z,11.27
2019-03-19T16:10:30.396Z,11.25
2019-03-19T16:11:30.407Z,11.10
2019-03-19T16:12:30.382Z,11.14
2019-03-19T16:13:30.370Z,11.07
2019-03-19T16:14:30.376Z,11.12
2019-03-19T16:15:30.345Z,11.04
2019-03-19T16:16:30.356Z,11.07
2019-03-19T16:17:30.334Z,10.96
2019-03-19T16:18:30.325Z,11.00
2019-03-19T16:19:30.304Z,11.02
2019-03-19T16:20:30.293Z,10.86
2019-03-19T16:21:30.305Z,10.84
2019-03-19T16:22:30.266Z,10.78
2019-03-19T16:23:30.257Z,10.75
2019-03-19T16:24:30.248Z,10.75
2019-03-19T16:25:30.233Z,10.67
2019-03-19T16:26:30.284Z,10.71
2019-03-19T16:27:30.218Z,10.67
2019-03-19T16:28:30.204Z,10.68
2019-03-19T16:29:30.224Z,10.72
2019-03-19T16:30:30.190Z,10.59
2019-03-19T16:31:30.184Z,10.69
2019-03-19T16:32:30.177Z,10.60
2019-03-19T16:33:30.159Z,10.54
2019-03-19T16:34:30.153Z,10.59
2019-03-19T16:35:30.134Z,10.51
2019-03-19T16:36:30.117Z,10.54
2019-03-19T16:37:30.118Z,10.54
2019-03-19T16:38:30.128Z,10.51
2019-03-19T16:39:30.092Z,10.61
2019-03-19T16:40:30.084Z,10.51
2019-03-19T16:41:30.226Z,10.60
2019-03-19T16:42:30.194Z,10.57
2019-03-19T16:43:30.042Z,10.57
2019-03-19T16:44:30.059Z,10.63
2019-03-19T16:45:30.026Z,10.54
2019-03-19T16:46:30.028Z,10.54
2019-03-19T16:47:30.000Z,10.51
2019-03-19T16:48:29.989Z,10.53
2019-03-19T16:49:29.983Z,10.57
2019-03-19T16:50:30.232Z,10.48
2019-03-19T16:51:30.109Z,10.40
2019-03-19T16:52:30.278Z,10.46
2019-03-19T16:53:29.939Z,10.41
2019-03-19T16:54:30.001Z,10.35
2019-03-19T16:55:29.913Z,10.41
2019-03-19T16:56:29.918Z,10.30
2019-03-19T16:57:29.891Z,10.34
2019-03-19T16:58:29.887Z,10.23
2019-03-19T16:59:29.872Z,10.19
2019-03-19T17:00:29.863Z,10.23
2019-03-19T17:01:29.862Z,10.16
2019-03-19T17:02:29.916Z,10.15
2019-03-19T17:03:29.969Z,9.97
2019-03-19T17:04:29.917Z,9.99
2019-03-19T17:05:29.810Z,10.07
2019-03-19T17:06:30.334Z,10.02
2019-03-19T17:07:29.907Z,10.01
2019-03-19T17:08:29.835Z,9.92
2019-03-19T17:09:29.760Z,9.89
2019-03-19T17:10:29.790Z,9.82
2019-03-19T17:11:30.011Z,9.83
2019-03-19T17:12:29.750Z,9.68
2019-03-19T17:13:29.974Z,9.72
2019-03-19T17:14:29.748Z,9.62
2019-03-19T17:15:29.697Z,9.68
2019-03-19T17:16:29.795Z,9.54
2019-03-19T17:17:29.682Z,9.51
2019-03-19T17:18:29.694Z,9.54
2019-03-19T17:19:29.763Z,9.39
2019-03-19T17:20:29.728Z,9.40
2019-03-19T17:21:29.646Z,9.37
2019-03-19T17:22:29.685Z,9.25
2019-03-19T17:23:29.623Z,9.26
2019-03-19T17:24:29.620Z,9.23
2019-03-19T17:25:29.619Z,9.21
2019-03-19T17:26:29.597Z,9.06
2019-03-19T17:27:29.613Z,9.03
2019-03-19T17:28:29.579Z,9.00
2019-03-19T17:29:29.571Z,8.89